Terminal Aerodrome Forecast
Issued by NWS

Home | Current Version | Previous Version | Text Only | Print | Product List | Glossary On
Versions: 1 2 3 4 5 6 7 8 9 10 11 12 13 14 15 16 17 18
000
FTUS41 KOKX 250535
TAFSWF
TAF
KSWF 250535Z 2506/2612 VRB03KT P6SM BKN100
     FM251500 24012G19KT P6SM SCT130 BKN200
     FM251800 24015G24KT P6SM FEW050 BKN200
     FM260000 24009KT P6SM BKN200
     FM260600 24005KT P6SM BKN250
      AMD NOT SKED=

USA.gov is the U.S. government's official web portal to all federal, state and local government web resources and services.